Time;durP1;ratioP1;P1;durP2;ratioP2;P2;SDS_P1;SDS_P2;PMS_P1;PMS_P2;Temp;Humidity;BMP_temperature;BMP_pressure;BME280_temperature;BME280_humidity;BME280_pressure;Samples;Min_cycle;Max_cycle;Signal;HPM_P1;HPM_P2
2022/05/01 00:00:45;;;;;;;;;;;;;;;;;;5054816;28;19916;-58
2022/05/01 00:05:55;;;;;;;;;;;17.30;90.30;;;;;;5054862;28;19963;-58
2022/05/01 00:08:21;;;;;;;;;;;;;;;;;;5054703;28;19908;-58
2022/05/01 00:10:48;;;;;;;;;;;;;;;;;;5054678;28;19952;-58
2022/05/01 00:13:15;;;;;;;;;;;17.30;90.30;;;;;;5054721;28;19954;-58
2022/05/01 00:15:42;;;;;;;;;;;;;;;;;;5054623;28;19999;-58
2022/05/01 00:18:07;;;;;;;;;;;17.20;90.20;;;;;;5054507;28;19909;-58
2022/05/01 00:20:33;;;;;;;;;;;17.30;87.90;;;;;;5054317;28;19923;-58
2022/05/01 00:22:59;;;;;;;;;;;;;;;;;;5054440;28;19909;-59
2022/05/01 00:25:25;;;;;;;;;;;;;;;;;;5054313;28;20264;-58
2022/05/01 00:27:51;;;;;;;;;;;;;;;;;;5053639;28;19954;-58
2022/05/01 00:30:17;;;;;;;;;;;;;;;;;;5054306;28;19909;-58
2022/05/01 00:38:11;;;;;;;;;;;17.20;90.10;;;;;;5054529;28;19915;-58
2022/05/01 00:40:37;;;;;;;;;;;;;;;;;;5053999;28;19917;-58
2022/05/01 00:43:03;;;;;;;;;;;17.20;88.70;;;;;;5054389;28;19909;-59
2022/05/01 00:45:29;;;;;;;;;;;17.20;88.20;;;;;;5053996;28;20378;-58
2022/05/01 00:47:55;;;;;;;;;;;;;;;;;;5054208;28;19909;-58
2022/05/01 00:50:21;;;;;;;;;;;;;;;;;;5053969;28;20260;-58
2022/05/01 00:52:47;;;;;;;;;;;;;;;;;;5054068;28;19915;-58
2022/05/01 00:55:13;;;;;;;;;;;;;;;;;;5053829;28;20398;-59
2022/05/01 00:57:39;;;;;;;;;;;;;;;;;;5053736;28;19931;-59
2022/05/01 01:00:04;;;;;;;;;;;;;;;;;;5053629;28;19970;-59
2022/05/01 01:02:33;;;;;;;;;;;17.10;90.20;;;;;;5053387;28;19920;-58
2022/05/01 01:04:59;;;;;;;;;;;;;;;;;;5053652;28;19990;-58
2022/05/01 01:07:25;;;;;;;;;;;;;;;;;;5053664;28;19971;-59
2022/05/01 01:09:50;;;;;;;;;;;17.20;90.20;;;;;;5053802;28;19909;-58
2022/05/01 01:15:00;;;;;;;;;;;17.10;90.20;;;;;;5053502;28;19962;-59
2022/05/01 01:17:25;;;;;;;;;;;17.10;90.10;;;;;;5053453;28;20334;-59
2022/05/01 01:19:51;;;;;;;;;;;;;;;;;;5052000;28;19920;-58
2022/05/01 01:22:17;;;;;;;;;;;;;;;;;;5053305;28;19909;-59
2022/05/01 01:24:44;;;;;;;;;;;;;;;;;;5053257;28;20367;-58
2022/05/01 01:27:10;;;;;;;;;;;17.10;90.20;;;;;;5053601;28;19998;-58
2022/05/01 01:32:21;;;;;;;;;;;;;;;;;;5053590;28;19916;-58
2022/05/01 01:34:49;;;;;;;;;;;17.00;88.30;;;;;;5053038;28;19994;-58
2022/05/01 01:37:15;;;;;;;;;;;;;;;;;;5053113;28;20415;-58
2022/05/01 01:39:41;;;;;;;;;;;;;;;;;;5052885;28;20003;-58
2022/05/01 01:42:07;;;;;;;;;;;;;;;;;;5053331;28;20011;-58
2022/05/01 01:44:36;;;;;;;;;;;17.00;90.10;;;;;;5053356;28;19993;-58
2022/05/01 01:47:01;;;;;;;;;;;17.00;90.20;;;;;;5053245;28;19909;-58
2022/05/01 01:49:27;;;;;;;;;;;;;;;;;;5051592;28;19909;-58
2022/05/01 01:51:53;;;;;;;;;;;;;;;;;;5052811;28;19920;-58
2022/05/01 01:54:19;;;;;;;;;;;;;;;;;;5052837;28;20379;-58
2022/05/01 01:56:45;;;;;;;;;;;;;;;;;;5052711;28;19915;-58
2022/05/01 01:59:11;;;;;;;;;;;17.00;90.20;;;;;;5052777;28;19916;-58
2022/05/01 02:01:37;;;;;;;;;;;;;;;;;;5052460;28;20410;-48
2022/05/01 02:04:03;;;;;;;;;;;;;;;;;;5052815;28;19913;-48
2022/05/01 02:06:29;;;;;;;;;;;;;;;;;;5052972;28;20359;-48
2022/05/01 02:08:57;;;;;;;;;;;;;;;;;;5052592;28;19909;-48
2022/05/01 02:11:24;;;;;;;;;;;;;;;;;;5052875;28;19916;-48
2022/05/01 02:13:50;;;;;;;;;;;16.90;90.30;;;;;;5052674;28;19951;-49
2022/05/01 02:16:17;;;;;;;;;;;16.90;90.40;;;;;;5052605;28;19992;-48
2022/05/01 02:18:43;;;;;;;;;;;;;;;;;;5052550;28;19913;-48
2022/05/01 02:23:54;;;;;;;;;;;16.90;90.30;;;;;;5052553;28;19916;-48
2022/05/01 02:26:20;;;;;;;;;;;16.90;90.40;;;;;;5052789;28;19916;-48
2022/05/01 02:28:45;;;;;;;;;;;16.80;90.40;;;;;;5052487;28;19909;-48
2022/05/01 02:31:11;;;;;;;;;;;;;;;;;;5052465;28;20009;-48
2022/05/01 02:33:37;;;;;;;;;;;16.90;88.80;;;;;;5052716;28;20386;-48
2022/05/01 02:36:05;;;;;;;;;;;;;;;;;;5052645;28;19956;-48
2022/05/01 02:38:31;;;;;;;;;;;;;;;;;;5052465;28;19909;-48
2022/05/01 02:40:56;;;;;;;;;;;16.90;90.20;;;;;;5052331;28;19916;-48
2022/05/01 02:43:21;;;;;;;;;;;16.90;90.30;;;;;;5052633;28;20007;-48
2022/05/01 02:45:47;;;;;;;;;;;16.80;87.50;;;;;;5052284;28;19909;-50
2022/05/01 02:48:13;;;;;;;;;;;;;;;;;;5052326;28;20298;-49
2022/05/01 02:50:39;;;;;;;;;;;;;;;;;;5054440;28;19915;-47
2022/05/01 02:53:05;;;;;;;;;;;;;;;;;;5056156;28;19970;-49
2022/05/01 02:55:31;;;;;;;;;;;;;;;;;;5056113;28;20133;-49
2022/05/01 02:57:57;;;;;;;;;;;;;;;;;;5056410;28;19908;-48
2022/05/01 03:00:23;;;;;;;;;;;;;;;;;;5055978;28;19928;-48
2022/05/01 03:02:49;;;;;;;;;;;;;;;;;;5055733;28;19966;-49
2022/05/01 03:05:14;;;;;;;;;;;;;;;;;;5055943;28;19909;-48
2022/05/01 03:07:40;;;;;;;;;;;16.80;90.20;;;;;;5055870;28;19912;-48
2022/05/01 03:10:07;;;;;;;;;;;16.80;90.20;;;;;;5056068;28;20351;-47
2022/05/01 03:12:33;;;;;;;;;;;;;;;;;;5055925;28;19919;-48
2022/05/01 03:14:59;;;;;;;;;;;;;;;;;;5055756;28;19908;-49
2022/05/01 03:17:24;;;;;;;;;;;;;;;;;;5055711;28;20004;-48
2022/05/01 03:22:34;;;;;;;;;;;16.70;90.30;;;;;;5062627;28;19943;-50
2022/05/01 03:24:59;;;;;;;;;;;16.70;90.40;;;;;;5055536;28;19909;-49
2022/05/01 03:27:25;;;;;;;;;;;;;;;;;;5055482;28;19915;-48
2022/05/01 03:32:36;;;;;;;;;;;16.80;87.10;;;;;;5055452;28;20023;-48
2022/05/01 03:35:01;;;;;;;;;;;16.80;90.20;;;;;;5055499;28;19909;-48
2022/05/01 03:37:29;;;;;;;;;;;;;;;;;;5055334;28;19932;-49
2022/05/01 03:39:54;;;;;;;;;;;;;;;;;;5055494;28;19962;-48
2022/05/01 03:42:20;;;;;;;;;;;16.70;90.30;;;;;;5055202;28;19916;-49
2022/05/01 03:44:46;;;;;;;;;;;;;;;;;;5055278;28;19960;-48
2022/05/01 03:47:11;;;;;;;;;;;16.70;90.30;;;;;;5055046;28;19908;-49
2022/05/01 03:49:37;;;;;;;;;;;;;;;;;;5055097;28;19996;-48
2022/05/01 03:52:03;;;;;;;;;;;;;;;;;;5055056;28;20004;-48
2022/05/01 03:54:29;;;;;;;;;;;;;;;;;;5055169;28;19909;-48
2022/05/01 03:56:55;;;;;;;;;;;;;;;;;;5054916;28;19916;-48
2022/05/01 03:59:21;;;;;;;;;;;;;;;;;;5054871;28;20489;-48
2022/05/01 04:01:46;;;;;;;;;;;16.70;90.30;;;;;;5053396;28;19917;-47
2022/05/01 04:04:12;;;;;;;;;;;16.70;90.40;;;;;;5054868;28;19921;-48
2022/05/01 04:06:37;;;;;;;;;;;16.80;90.20;;;;;;5054761;28;19912;-49
2022/05/01 04:09:03;;;;;;;;;;;;;;;;;;5054763;28;19908;-48
2022/05/01 04:11:29;;;;;;;;;;;;;;;;;;5055026;28;19909;-48
2022/05/01 04:13:55;;;;;;;;;;;;;;;;;;5054679;28;19931;-49
2022/05/01 04:16:21;;;;;;;;;;;;;;;;;;5054594;28;19908;-48
2022/05/01 04:18:46;;;;;;;;;;;16.60;90.50;;;;;;5054820;28;19909;-48
2022/05/01 04:21:13;;;;;;;;;;;16.70;90.40;;;;;;5054473;28;20307;-49
2022/05/01 04:23:39;;;;;;;;;;;;;;;;;;5054489;28;20441;-49
2022/05/01 04:26:05;;;;;;;;;;;;;;;;;;5054719;28;19913;-48
2022/05/01 04:28:31;;;;;;;;;;;;;;;;;;5054355;28;20292;-49
2022/05/01 04:30:56;;;;;;;;;;;16.70;90.40;;;;;;5054382;28;19954;-48
2022/05/01 04:33:21;;;;;;;;;;;16.60;90.30;;;;;;5054255;28;19913;-48
2022/05/01 04:35:49;;;;;;;;;;;16.70;88.10;;;;;;5054302;28;19909;-47
2022/05/01 04:38:21;;;;;;;;;;;16.60;90.40;;;;;;5054465;28;19909;-48
2022/05/01 04:40:47;;;;;;;;;;;;;;;;;;5054049;28;19924;-48
2022/05/01 04:43:13;;;;;;;;;;;;;;;;;;5054454;28;19988;-48
2022/05/01 04:45:40;;;;;;;;;;;;;;;;;;5054300;28;19948;-48
2022/05/01 04:48:06;;;;;;;;;;;16.50;90.20;;;;;;5054010;28;19959;-49
2022/05/01 04:50:32;;;;;;;;;;;16.70;90.40;;;;;;5054012;28;19924;-49
2022/05/01 04:53:00;;;;;;;;;;;16.70;90.40;;;;;;5053930;28;19908;-48
2022/05/01 04:55:25;;;;;;;;;;;16.60;90.30;;;;;;5054104;28;19909;-48
2022/05/01 04:57:51;;;;;;;;;;;16.60;87.30;;;;;;5053834;28;19909;-52
2022/05/01 05:00:20;;;;;;;;;;;;;;;;;;5053714;28;19919;-49
2022/05/01 05:02:47;;;;;;;;;;;16.50;90.20;;;;;;5053507;28;19928;-50
2022/05/01 05:05:13;;;;;;;;;;;;;;;;;;5053711;28;20008;-49
2022/05/01 05:07:38;;;;;;;;;;;16.50;90.30;;;;;;5053955;28;19956;-53
2022/05/01 05:10:05;;;;;;;;;;;16.60;90.30;;;;;;5053571;28;20428;-51
2022/05/01 05:12:32;;;;;;;;;;;;;;;;;;5053138;28;20287;-48
2022/05/01 05:14:59;;;;;;;;;;;16.60;88.90;;;;;;5053529;28;20336;-48
2022/05/01 05:17:25;;;;;;;;;;;;;;;;;;5053388;28;19916;-48
2022/05/01 05:19:51;;;;;;;;;;;;;;;;;;5053309;28;19909;-48
2022/05/01 05:22:17;;;;;;;;;;;;;;;;;;5053332;28;19916;-49
2022/05/01 05:24:43;;;;;;;;;;;;;;;;;;5053379;28;19927;-49
2022/05/01 05:27:09;;;;;;;;;;;;;;;;;;5053391;28;19964;-47
2022/05/01 05:29:35;;;;;;;;;;;;;;;;;;5053182;28;19916;-47
2022/05/01 05:32:00;;;;;;;;;;;16.60;90.60;;;;;;5053451;28;19909;-48
2022/05/01 05:34:26;;;;;;;;;;;;;;;;;;5051898;28;20432;-48
2022/05/01 05:36:51;;;;;;;;;;;16.50;90.60;;;;;;5053327;28;19955;-48
2022/05/01 05:39:17;;;;;;;;;;;;;;;;;;5053104;28;20349;-48
2022/05/01 05:41:43;;;;;;;;;;;;;;;;;;5052933;28;19917;-48
2022/05/01 05:44:09;;;;;;;;;;;;;;;;;;5053114;28;20485;-58
2022/05/01 05:46:35;;;;;;;;;;;;;;;;;;5052936;28;19959;-58
2022/05/01 05:49:01;;;;;;;;;;;;;;;;;;5052940;28;19913;-58
2022/05/01 05:51:26;;;;;;;;;;;16.60;90.50;;;;;;5052892;28;20397;-58
2022/05/01 05:53:52;;;;;;;;;;;16.50;90.40;;;;;;5052841;28;19913;-58
2022/05/01 05:56:18;;;;;;;;;;;;;;;;;;5052865;28;20303;-58
2022/05/01 05:58:44;;;;;;;;;;;;;;;;;;5052716;28;19915;-58
2022/05/01 06:01:13;;;;;;;;;;;16.50;90.50;;;;;;5052655;28;19940;-58
2022/05/01 06:03:38;;;;;;;;;;;16.60;90.60;;;;;;5052664;28;19921;-58
2022/05/01 06:06:04;;;;;;;;;;;16.60;90.50;;;;;;5052718;28;20260;-58
2022/05/01 06:08:30;;;;;;;;;;;16.60;90.60;;;;;;5052716;28;20279;-58
2022/05/01 06:10:55;;;;;;;;;;;16.60;90.40;;;;;;5052880;28;19908;-58
2022/05/01 06:13:21;;;;;;;;;;;;;;;;;;5052639;28;20003;-58
2022/05/01 06:15:47;;;;;;;;;;;;;;;;;;5052835;28;19905;-57
2022/05/01 06:18:13;;;;;;;;;;;16.80;87.20;;;;;;5052603;28;20363;-58
2022/05/01 06:20:39;;;;;;;;;;;16.60;88.10;;;;;;5052615;28;19913;-57
2022/05/01 06:23:05;;;;;;;;;;;;;;;;;;5052613;28;20295;-58
2022/05/01 06:25:30;;;;;;;;;;;16.70;90.30;;;;;;5054556;28;19908;-58
2022/05/01 06:27:56;;;;;;;;;;;16.70;90.40;;;;;;5056639;28;19909;-58
2022/05/01 06:30:21;;;;;;;;;;;16.70;90.30;;;;;;5056630;28;19935;-58
2022/05/01 06:32:47;;;;;;;;;;;;;;;;;;5056763;28;20264;-59
2022/05/01 06:35:13;;;;;;;;;;;;;;;;;;5056468;28;20287;-58
2022/05/01 06:37:39;;;;;;;;;;;;;;;;;;5056441;28;19952;-59
2022/05/01 06:40:05;;;;;;;;;;;;;;;;;;5056371;28;19909;-48
2022/05/01 06:42:31;;;;;;;;;;;;;;;;;;5055088;28;20402;-48
2022/05/01 06:44:57;;;;;;;;;;;;;;;;;;5056312;28;20007;-48
2022/05/01 06:47:22;;;;;;;;;;;16.70;90.60;;;;;;5056270;28;20014;-47
2022/05/01 06:49:47;;;;;;;;;;;16.80;90.60;;;;;;5056249;28;19913;-49
2022/05/01 06:52:13;;;;;;;;;;;16.80;89.00;;;;;;5056135;28;20371;-48
2022/05/01 06:54:39;;;;;;;;;;;;;;;;;;5056118;28;19909;-48
2022/05/01 06:57:05;;;;;;;;;;;;;;;;;;5056245;28;20012;-48
2022/05/01 06:59:31;;;;;;;;;;;;;;;;;;5056337;28;19945;-47
2022/05/01 07:01:57;;;;;;;;;;;;;;;;;;5055634;28;19920;-47
2022/05/01 07:04:23;;;;;;;;;;;;;;;;;;5056000;28;19909;-47
2022/05/01 07:06:49;;;;;;;;;;;;;;;;;;5055842;28;19915;-47
2022/05/01 07:09:14;;;;;;;;;;;16.90;90.80;;;;;;5055903;28;19905;-47
2022/05/01 07:11:39;;;;;;;;;;;17.00;90.70;;;;;;5055852;28;19920;-47
2022/05/01 07:14:05;;;;;;;;;;;17.00;88.00;;;;;;5055732;28;19908;-48
2022/05/01 07:16:31;;;;;;;;;;;;;;;;;;5055828;28;20017;-47
2022/05/01 07:18:57;;;;;;;;;;;;;;;;;;5055693;28;19911;-47
2022/05/01 07:21:23;;;;;;;;;;;;;;;;;;5055568;28;19921;-47
2022/05/01 07:23:48;;;;;;;;;;;17.10;90.70;;;;;;5055637;28;19970;-47
2022/05/01 07:26:13;;;;;;;;;;;17.10;90.60;;;;;;5055530;28;20279;-48
2022/05/01 07:28:39;;;;;;;;;;;;;;;;;;5055507;28;20092;-49
2022/05/01 07:31:05;;;;;;;;;;;;;;;;;;5055397;28;19909;-48
2022/05/01 07:33:31;;;;;;;;;;;;;;;;;;5055662;28;19909;-47
2022/05/01 07:35:58;;;;;;;;;;;;;;;;;;5055170;28;19916;-49
2022/05/01 07:38:23;;;;;;;;;;;17.20;88.70;;;;;;5055298;28;19909;-48
2022/05/01 07:40:49;;;;;;;;;;;;;;;;;;5055163;28;19962;-49
2022/05/01 07:43:15;;;;;;;;;;;;;;;;;;5055174;28;19909;-49
2022/05/01 07:45:41;;;;;;;;;;;;;;;;;;5055177;28;20410;-49
2022/05/01 07:48:07;;;;;;;;;;;;;;;;;;5054989;28;19916;-48
2022/05/01 07:50:33;;;;;;;;;;;;;;;;;;5053759;28;19913;-49
2022/05/01 07:52:58;;;;;;;;;;;17.10;90.50;;;;;;5055157;28;20505;-49
2022/05/01 07:55:24;;;;;;;;;;;;;;;;;;5054948;28;19997;-49
2022/05/01 07:57:50;;;;;;;;;;;;;;;;;;5054986;28;19909;-48
2022/05/01 08:00:15;;;;;;;;;;;17.30;90.70;;;;;;5054724;28;20379;-48
2022/05/01 08:05:27;;;;;;;;;;;17.40;90.80;;;;;;5054858;28;19998;-52
2022/05/01 08:07:53;;;;;;;;;;;;;;;;;;5054741;28;20355;-49
2022/05/01 08:10:19;;;;;;;;;;;;;;;;;;5054684;28;19962;-49
2022/05/01 08:12:45;;;;;;;;;;;;;;;;;;5054713;28;20382;-49
2022/05/01 08:15:11;;;;;;;;;;;;;;;;;;5054852;28;19985;-49
2022/05/01 08:17:37;;;;;;;;;;;;;;;;;;5054540;28;19909;-50
2022/05/01 08:22:47;;;;;;;;;;;;;;;;;;5054595;28;20366;-47
2022/05/01 08:25:13;;;;;;;;;;;;;;;;;;5054446;28;19917;-50
2022/05/01 08:27:39;;;;;;;;;;;;;;;;;;5054404;28;20004;-48
2022/05/01 08:30:05;;;;;;;;;;;;;;;;;;5054462;28;20375;-49
2022/05/01 08:32:31;;;;;;;;;;;;;;;;;;5054258;28;19909;-49
2022/05/01 08:34:57;;;;;;;;;;;;;;;;;;5054263;28;19908;-51
2022/05/01 08:37:23;;;;;;;;;;;;;;;;;;5054189;28;19908;-49
2022/05/01 08:39:49;;;;;;;;;;;;;;;;;;5054137;28;20319;-48
2022/05/01 08:42:15;;;;;;;;;;;;;;;;;;5054039;28;20395;-48
2022/05/01 08:44:41;;;;;;;;;;;;;;;;;;5054318;28;19928;-48
2022/05/01 08:47:07;;;;;;;;;;;;;;;;;;5053704;28;19982;-49
2022/05/01 08:49:33;;;;;;;;;;;18.20;89.80;;;;;;5053727;28;19912;-58
2022/05/01 08:51:59;;;;;;;;;;;;;;;;;;5053959;28;19956;-58
2022/05/01 08:54:25;;;;;;;;;;;;;;;;;;5053786;28;20418;-58
2022/05/01 08:56:51;;;;;;;;;;;;;;;;;;5053794;28;19916;-58
2022/05/01 08:59:17;;;;;;;;;;;18.30;89.40;;;;;;5053779;28;19909;-58
2022/05/01 09:01:43;;;;;;;;;;;;;;;;;;5053564;28;20382;-58
2022/05/01 09:04:09;;;;;;;;;;;18.30;89.30;;;;;;5053800;28;19960;-58
2022/05/01 09:06:35;;;;;;;;;;;;;;;;;;5052436;28;20324;-58
2022/05/01 09:09:01;;;;;;;;;;;;;;;;;;5053629;28;19963;-58
2022/05/01 09:14:11;;;;;;;;;;;18.10;88.70;;;;;;5053628;28;19915;-58
2022/05/01 09:16:37;;;;;;;;;;;;;;;;;;5053489;28;20345;-58
2022/05/01 09:19:03;;;;;;;;;;;;;;;;;;5053439;28;19913;-58
2022/05/01 09:21:29;;;;;;;;;;;;;;;;;;5053250;28;20015;-58
2022/05/01 09:24:04;;;;;;;;;;;18.20;89.00;;;;;;5053433;28;20012;-57
2022/05/01 09:26:36;;;;;;;;;;;18.30;88.90;;;;;;5053280;28;20374;-59
2022/05/01 09:29:01;;;;;;;;;;;18.20;89.00;;;;;;5053216;28;19999;-58
2022/05/01 09:31:27;;;;;;;;;;;;;;;;;;5053162;28;19975;-58
2022/05/01 09:33:53;;;;;;;;;;;;;;;;;;5053094;28;19965;-58
2022/05/01 09:36:35;;;;;;;;;;;18.00;88.60;;;;;;5052941;28;20383;-59
2022/05/01 09:39:01;;;;;;;;;;;;;;;;;;5052997;28;19993;-58
2022/05/01 09:41:27;;;;;;;;;;;;;;;;;;5051590;28;19967;-57
2022/05/01 09:43:53;;;;;;;;;;;;;;;;;;5052975;28;19913;-58
2022/05/01 09:46:27;;;;;;;;;;;18.40;89.00;;;;;;5052915;28;19909;-58
2022/05/01 09:48:58;;;;;;;;;;;18.40;88.20;;;;;;5053185;28;19913;-58
2022/05/01 09:51:24;;;;;;;;;;;;;;;;;;5052863;28;19909;-58
2022/05/01 09:53:50;;;;;;;;;;;18.40;88.80;;;;;;5052754;28;19915;-58
2022/05/01 09:56:15;;;;;;;;;;;18.50;88.30;;;;;;5052837;28;19909;-58
2022/05/01 09:58:43;;;;;;;;;;;;;;;;;;5052459;28;19909;-58
2022/05/01 10:01:12;;;;;;;;;;;18.50;89.20;;;;;;5052168;28;20362;-58
2022/05/01 10:03:46;;;;;;;;;;;18.50;88.10;;;;;;5052564;28;19921;-57
2022/05/01 10:06:13;;;;;;;;;;;18.60;88.90;;;;;;5052725;28;19988;-57
2022/05/01 10:08:39;;;;;;;;;;;18.60;88.70;;;;;;5052591;28;19915;-58
2022/05/01 10:11:05;;;;;;;;;;;18.70;88.80;;;;;;5052566;28;19908;-57
2022/05/01 10:13:31;;;;;;;;;;;;;;;;;;5052538;28;19915;-57
2022/05/01 10:15:57;;;;;;;;;;;;;;;;;;5052746;28;19988;-57
2022/05/01 10:18:23;;;;;;;;;;;;;;;;;;5052591;28;20500;-57
2022/05/01 10:20:48;;;;;;;;;;;18.70;88.10;;;;;;5052376;28;19958;-57
2022/05/01 10:23:14;;;;;;;;;;;18.80;88.30;;;;;;5052426;28;19909;-57
2022/05/01 10:25:40;;;;;;;;;;;;;;;;;;5052375;28;19912;-57
2022/05/01 10:28:06;;;;;;;;;;;;;;;;;;5052289;28;19920;-59
2022/05/01 10:33:24;;;;;;;;;;;;;;;;;;5059095;28;20379;-59
2022/05/01 10:36:08;;;;;;;;;;;18.80;87.80;;;;;;5052286;28;19909;-59
2022/05/01 10:38:49;;;;;;;;;;;18.80;87.80;;;;;;5052463;28;19908;-59
2022/05/01 10:41:15;;;;;;;;;;;;;;;;;;5052253;28;20012;-59
2022/05/01 10:43:41;;;;;;;;;;;;;;;;;;5052241;28;20362;-59
2022/05/01 10:46:07;;;;;;;;;;;;;;;;;;5052495;28;19908;-59
2022/05/01 10:48:34;;;;;;;;;;;;;;;;;;5052203;28;19978;-59
2022/05/01 10:51:18;;;;;;;;;;;18.90;87.30;;;;;;5052176;28;19932;-59
2022/05/01 10:54:04;;;;;;;;;;;19.00;86.00;;;;;;5052090;28;19913;-59
2022/05/01 10:56:30;;;;;;;;;;;;;;;;;;5051864;28;19916;-59
2022/05/01 10:59:15;;;;;;;;;;;18.70;86.40;;;;;;5051857;28;19909;-59
2022/05/01 11:01:42;;;;;;;;;;;;;;;;;;5051463;28;19939;-59
2022/05/01 11:04:07;;;;;;;;;;;;;;;;;;5051950;28;19924;-59
2022/05/01 11:06:33;;;;;;;;;;;;;;;;;;5051901;28;19909;-59
2022/05/01 11:08:59;;;;;;;;;;;;;;;;;;5051835;28;20047;-59
2022/05/01 11:11:25;;;;;;;;;;;;;;;;;;5053561;28;19909;-59
2022/05/01 11:13:53;;;;;;;;;;;;;;;;;;5055870;28;19909;-59
2022/05/01 11:16:38;;;;;;;;;;;19.10;86.40;;;;;;5055669;28;20489;-59
2022/05/01 11:19:04;;;;;;;;;;;19.10;86.30;;;;;;5055402;28;20022;-59
2022/05/01 11:21:30;;;;;;;;;;;18.90;84.30;;;;;;5055343;28;19917;-59
2022/05/01 11:23:56;;;;;;;;;;;;;;;;;;5055386;28;19963;-59
2022/05/01 11:26:22;;;;;;;;;;;19.20;86.20;;;;;;5055479;28;19909;-59
2022/05/01 11:28:48;;;;;;;;;;;19.10;85.00;;;;;;5055320;28;19999;-59
2022/05/01 11:31:15;;;;;;;;;;;;;;;;;;5055269;28;19909;-59
2022/05/01 11:33:40;;;;;;;;;;;19.20;86.00;;;;;;5055378;28;19913;-60
2022/05/01 11:36:06;;;;;;;;;;;19.20;85.70;;;;;;5055238;28;20047;-60
2022/05/01 11:38:34;;;;;;;;;;;19.20;86.00;;;;;;5055391;28;19916;-59
2022/05/01 11:41:00;;;;;;;;;;;;;;;;;;5054928;28;19913;-60
2022/05/01 11:43:28;;;;;;;;;;;;;;;;;;5055051;28;19909;-60
2022/05/01 11:45:54;;;;;;;;;;;;;;;;;;5055008;28;19919;-60
2022/05/01 11:48:20;;;;;;;;;;;19.20;86.10;;;;;;5054940;28;20383;-60
2022/05/01 11:50:50;;;;;;;;;;;19.20;85.40;;;;;;5054965;28;19962;-60
2022/05/01 11:53:17;;;;;;;;;;;19.20;86.20;;;;;;5055090;28;19909;-59
2022/05/01 12:04:00;;;;;;;;;;;19.10;85.30;;;;;;5054878;28;19974;-60
2022/05/01 12:06:26;;;;;;;;;;;19.30;86.20;;;;;;5054774;28;19909;-60
2022/05/01 12:08:52;;;;;;;;;;;19.20;84.60;;;;;;5055044;28;20435;-59
2022/05/01 12:11:27;;;;;;;;;;;19.40;86.30;;;;;;5054650;28;19909;-60
2022/05/01 12:14:05;;;;;;;;;;;19.20;85.80;;;;;;5054498;28;20487;-60
2022/05/01 12:16:31;;;;;;;;;;;;;;;;;;5054317;28;19909;-60
2022/05/01 12:18:57;;;;;;;;;;;;;;;;;;5054451;28;19905;-58
2022/05/01 12:21:29;;;;;;;;;;;19.20;86.20;;;;;;5054169;28;19982;-58
2022/05/01 12:23:55;;;;;;;;;;;;;;;;;;5053570;28;19963;-58
2022/05/01 12:26:21;;;;;;;;;;;;;;;;;;5054190;28;19985;-58
2022/05/01 12:28:46;;;;;;;;;;;19.30;86.70;;;;;;5055254;28;19916;-58
2022/05/01 12:31:12;;;;;;;;;;;;;;;;;;5054468;28;19913;-53
2022/05/01 12:33:38;;;;;;;;;;;19.50;87.20;;;;;;5054068;28;19916;-52
2022/05/01 12:36:04;;;;;;;;;;;;;;;;;;5054119;28;19909;-50
2022/05/01 12:38:30;;;;;;;;;;;19.60;87.00;;;;;;5053907;28;19995;-50
2022/05/01 12:43:53;;;;;;;;;;;;;;;;;;5053996;28;19920;-50
2022/05/01 12:46:28;;;;;;;;;;;19.70;87.20;;;;;;5053859;28;19908;-50
2022/05/01 12:48:54;;;;;;;;;;;19.70;84.90;;;;;;5053817;28;19915;-50
2022/05/01 12:51:20;;;;;;;;;;;;;;;;;;5053609;28;20003;-49
2022/05/01 12:53:46;;;;;;;;;;;19.80;87.40;;;;;;5053791;28;20007;-49
2022/05/01 12:56:12;;;;;;;;;;;;;;;;;;5054098;28;20295;-50
2022/05/01 12:58:37;;;;;;;;;;;19.90;84.20;;;;;;5053487;28;19909;-50
2022/05/01 13:01:04;;;;;;;;;;;;;;;;;;5053539;28;19916;-49
2022/05/01 13:03:30;;;;;;;;;;;;;;;;;;5053454;28;20283;-49
2022/05/01 13:05:55;;;;;;;;;;;20.00;84.80;;;;;;5053736;28;19909;-53
2022/05/01 13:08:21;;;;;;;;;;;;;;;;;;5053574;28;19920;-51
2022/05/01 13:10:47;;;;;;;;;;;;;;;;;;5053542;28;19989;-49
2022/05/01 13:13:13;;;;;;;;;;;;;;;;;;5053375;28;20371;-51
2022/05/01 13:15:39;;;;;;;;;;;;;;;;;;5053377;28;19921;-51
2022/05/01 13:18:04;;;;;;;;;;;20.10;85.50;;;;;;5053405;28;19909;-48
2022/05/01 13:20:30;;;;;;;;;;;20.00;86.60;;;;;;5053258;28;19920;-47
2022/05/01 13:22:55;;;;;;;;;;;20.00;87.00;;;;;;5053580;28;19916;-47
2022/05/01 13:25:21;;;;;;;;;;;;;;;;;;5053296;28;20345;-48
2022/05/01 13:27:47;;;;;;;;;;;;;;;;;;5053418;28;19959;-48
2022/05/01 13:30:13;;;;;;;;;;;;;;;;;;5053123;28;19967;-48
2022/05/01 13:32:39;;;;;;;;;;;;;;;;;;5053090;28;20372;-48
2022/05/01 13:35:05;;;;;;;;;;;;;;;;;;5052860;28;19954;-49
2022/05/01 13:37:33;;;;;;;;;;;;;;;;;;5052939;28;19909;-48
2022/05/01 13:45:27;;;;;;;;;;;20.30;86.80;;;;;;5052961;28;19954;-50
2022/05/01 13:47:53;;;;;;;;;;;;;;;;;;5052774;28;19913;-50
2022/05/01 13:50:19;;;;;;;;;;;;;;;;;;5053051;28;19908;-49
2022/05/01 13:52:45;;;;;;;;;;;;;;;;;;5052775;28;20391;-49
2022/05/01 13:55:11;;;;;;;;;;;;;;;;;;5052808;28;19916;-49
2022/05/01 13:57:38;;;;;;;;;;;;;;;;;;5052686;28;19909;-50
2022/05/01 14:00:05;;;;;;;;;;;20.30;86.40;;;;;;5051572;28;19909;-49
2022/05/01 14:02:31;;;;;;;;;;;;;;;;;;5050926;28;19943;-48
2022/05/01 14:04:56;;;;;;;;;;;;;;;;;;5052065;28;20360;-48
2022/05/01 14:07:22;;;;;;;;;;;20.30;86.20;;;;;;5052523;28;19913;-48
2022/05/01 14:09:47;;;;;;;;;;;20.30;83.40;;;;;;5052579;28;19913;-49
2022/05/01 14:12:13;;;;;;;;;;;;;;;;;;5052512;28;19955;-48
2022/05/01 14:14:39;;;;;;;;;;;;;;;;;;5052529;28;19911;-49
2022/05/01 14:17:05;;;;;;;;;;;;;;;;;;5052432;28;19909;-48
2022/05/01 14:19:31;;;;;;;;;;;;;;;;;;5052566;28;19905;-49
2022/05/01 14:21:59;;;;;;;;;;;;;;;;;;5052382;28;19917;-48
2022/05/01 14:24:25;;;;;;;;;;;;;;;;;;5052542;28;19916;-50
2022/05/01 14:26:51;;;;;;;;;;;20.30;86.20;;;;;;5051912;28;19909;-49
2022/05/01 14:29:16;;;;;;;;;;;20.40;82.40;;;;;;5052294;28;19947;-50
2022/05/01 14:31:42;;;;;;;;;;;;;;;;;;5051838;28;20390;-49
2022/05/01 14:34:09;;;;;;;;;;;;;;;;;;5052187;28;19995;-48
2022/05/01 14:36:36;;;;;;;;;;;20.30;86.50;;;;;;5052213;28;19908;-49
2022/05/01 14:39:02;;;;;;;;;;;;;;;;;;5052054;28;19955;-55
2022/05/01 14:41:41;;;;;;;;;;;20.30;85.90;;;;;;5051565;28;19917;-56
2022/05/01 14:44:07;;;;;;;;;;;;;;;;;;5051633;28;20383;-57
2022/05/01 14:46:33;;;;;;;;;;;;;;;;;;5053609;28;19966;-55
2022/05/01 14:48:59;;;;;;;;;;;;;;;;;;5056049;28;20046;-56
2022/05/01 14:51:26;;;;;;;;;;;;;;;;;;5056099;28;19909;-57
2022/05/01 14:53:54;;;;;;;;;;;20.10;83.30;;;;;;5056009;28;19944;-56
2022/05/01 14:56:19;;;;;;;;;;;;;;;;;;5056087;28;19913;-55
2022/05/01 15:06:59;;;;;;;;;;;;;;;;;;5056149;28;19916;-56
2022/05/01 15:09:25;;;;;;;;;;;;;;;;;;5055735;28;19912;-56
2022/05/01 15:11:51;;;;;;;;;;;;;;;;;;5055654;28;20000;-57
2022/05/01 15:14:17;;;;;;;;;;;;;;;;;;5055790;28;19908;-56
2022/05/01 15:16:45;;;;;;;;;;;19.80;85.40;;;;;;5055750;28;20355;-59
2022/05/01 15:19:12;;;;;;;;;;;;;;;;;;5055924;28;19909;-59
2022/05/01 15:24:23;;;;;;;;;;;19.80;85.40;;;;;;5061978;28;19920;-59
2022/05/01 15:26:49;;;;;;;;;;;;;;;;;;5055403;28;19955;-59
2022/05/01 15:29:15;;;;;;;;;;;;;;;;;;5055447;28;19909;-59
2022/05/01 15:31:42;;;;;;;;;;;;;;;;;;5055486;28;20398;-59
2022/05/01 15:34:08;;;;;;;;;;;19.80;85.80;;;;;;5055493;28;19909;-58
2022/05/01 15:36:35;;;;;;;;;;;19.80;85.40;;;;;;5055625;28;19915;-59
2022/05/01 15:39:01;;;;;;;;;;;;;;;;;;5055213;28;20291;-59
2022/05/01 15:41:27;;;;;;;;;;;;;;;;;;5055149;28;19960;-59
2022/05/01 15:43:53;;;;;;;;;;;;;;;;;;5055147;28;19952;-59
2022/05/01 15:46:22;;;;;;;;;;;;;;;;;;5055095;28;19909;-58
2022/05/01 15:54:17;;;;;;;;;;;;;;;;;;5054902;28;19915;-49
2022/05/01 15:56:43;;;;;;;;;;;;;;;;;;5054655;28;19913;-50
2022/05/01 15:59:09;;;;;;;;;;;19.70;86.00;;;;;;5054829;28;20007;-52
2022/05/01 16:01:35;;;;;;;;;;;;;;;;;;5054873;28;19924;-51
2022/05/01 16:04:01;;;;;;;;;;;;;;;;;;5055053;28;19916;-51
2022/05/01 16:06:27;;;;;;;;;;;;;;;;;;5054641;28;19909;-50
2022/05/01 16:08:54;;;;;;;;;;;19.50;85.50;;;;;;5054587;28;19913;-50
2022/05/01 16:11:20;;;;;;;;;;;;;;;;;;5054802;28;20283;-50
2022/05/01 16:13:49;;;;;;;;;;;19.60;85.60;;;;;;5054513;28;19909;-50
2022/05/01 16:16:15;;;;;;;;;;;;;;;;;;5054215;28;19909;-50
2022/05/01 16:18:41;;;;;;;;;;;;;;;;;;5054138;28;19916;-50
2022/05/01 16:21:07;;;;;;;;;;;;;;;;;;5054001;28;19952;-50
2022/05/01 16:23:33;;;;;;;;;;;;;;;;;;5054488;28;19920;-50
2022/05/01 16:25:59;;;;;;;;;;;;;;;;;;5054200;28;20363;-51
2022/05/01 16:28:25;;;;;;;;;;;;;;;;;;5054151;28;19963;-51
2022/05/01 16:30:51;;;;;;;;;;;;;;;;;;5054171;28;20425;-50
2022/05/01 16:33:17;;;;;;;;;;;;;;;;;;5054087;28;19963;-51
2022/05/01 16:35:45;;;;;;;;;;;19.50;81.70;;;;;;5054049;28;19913;-52
2022/05/01 16:38:11;;;;;;;;;;;;;;;;;;5054039;28;19916;-52
2022/05/01 16:40:37;;;;;;;;;;;19.40;85.40;;;;;;5053862;28;19913;-50
2022/05/01 16:43:04;;;;;;;;;;;19.40;85.60;;;;;;5053918;28;19929;-53